sensor_id;sensor_type;location;lat;lon;timestamp;pressure;altitude;pressure_sealevel;temperature
60949;BMP280;46729;43.010;24.320;2022-08-21T00:01:14;96518.88;;;20.03
60949;BMP280;46729;43.010;24.320;2022-08-21T00:03:40;96521.91;;;19.62
60949;BMP280;46729;43.010;24.320;2022-08-21T00:06:07;96510.72;;;19.60
60949;BMP280;46729;43.010;24.320;2022-08-21T00:08:35;96507.41;;;20.03
60949;BMP280;46729;43.010;24.320;2022-08-21T00:11:03;96493.00;;;20.23
60949;BMP280;46729;43.010;24.320;2022-08-21T00:13:30;96493.78;;;20.00
60949;BMP280;46729;43.010;24.320;2022-08-21T00:15:58;96493.25;;;20.22
60949;BMP280;46729;43.010;24.320;2022-08-21T00:18:26;96496.97;;;19.97
60949;BMP280;46729;43.010;24.320;2022-08-21T00:20:53;96486.00;;;19.84
60949;BMP280;46729;43.010;24.320;2022-08-21T00:23:20;96481.72;;;19.78
60949;BMP280;46729;43.010;24.320;2022-08-21T00:25:47;96480.66;;;19.79
60949;BMP280;46729;43.010;24.320;2022-08-21T00:28:14;96474.28;;;19.89
60949;BMP280;46729;43.010;24.320;2022-08-21T00:30:42;96474.03;;;20.05
60949;BMP280;46729;43.010;24.320;2022-08-21T00:33:10;96459.41;;;20.13
60949;BMP280;46729;43.010;24.320;2022-08-21T00:35:41;96460.38;;;19.73
60949;BMP280;46729;43.010;24.320;2022-08-21T00:38:09;96464.03;;;19.52
60949;BMP280;46729;43.010;24.320;2022-08-21T00:40:47;96463.75;;;19.49
60949;BMP280;46729;43.010;24.320;2022-08-21T00:43:19;96463.03;;;19.68
60949;BMP280;46729;43.010;24.320;2022-08-21T00:45:47;96467.28;;;19.64
60949;BMP280;46729;43.010;24.320;2022-08-21T00:48:14;96481.72;;;19.78
60949;BMP280;46729;43.010;24.320;2022-08-21T00:50:45;96487.09;;;19.97
60949;BMP280;46729;43.010;24.320;2022-08-21T00:53:13;96492.72;;;20.05
60949;BMP280;46729;43.010;24.320;2022-08-21T00:55:40;96502.28;;;19.92
60949;BMP280;46729;43.010;24.320;2022-08-21T00:58:09;96503.63;;;19.94
60949;BMP280;46729;43.010;24.320;2022-08-21T01:00:39;96519.94;;;20.12
60949;BMP280;46729;43.010;24.320;2022-08-21T01:03:15;96518.31;;;20.02
60949;BMP280;46729;43.010;24.320;2022-08-21T01:05:43;96516.44;;;19.97
60949;BMP280;46729;43.010;24.320;2022-08-21T01:08:11;96514.03;;;19.91
60949;BMP280;46729;43.010;24.320;2022-08-21T01:10:39;96518.06;;;20.08
60949;BMP280;46729;43.010;24.320;2022-08-21T01:13:08;96525.28;;;20.12
60949;BMP280;46729;43.010;24.320;2022-08-21T01:15:39;96517.28;;;20.17
60949;BMP280;46729;43.010;24.320;2022-08-21T01:18:09;96524.69;;;19.91
60949;BMP280;46729;43.010;24.320;2022-08-21T01:20:43;96516.09;;;19.79
60949;BMP280;46729;43.010;24.320;2022-08-21T01:23:10;96517.38;;;19.57
60949;BMP280;46729;43.010;24.320;2022-08-21T01:25:37;96528.19;;;19.41
60949;BMP280;46729;43.010;24.320;2022-08-21T01:28:13;96532.03;;;19.14
60949;BMP280;46729;43.010;24.320;2022-08-21T01:30:42;96535.31;;;19.26
60949;BMP280;46729;43.010;24.320;2022-08-21T01:33:10;96540.91;;;19.29
60949;BMP280;46729;43.010;24.320;2022-08-21T01:35:37;96536.88;;;19.22
60949;BMP280;46729;43.010;24.320;2022-08-21T01:38:03;96534.63;;;19.00
60949;BMP280;46729;43.010;24.320;2022-08-21T01:40:30;96544.06;;;19.17
60949;BMP280;46729;43.010;24.320;2022-08-21T01:42:57;96549.25;;;19.02
60949;BMP280;46729;43.010;24.320;2022-08-21T01:45:24;96547.53;;;19.17
60949;BMP280;46729;43.010;24.320;2022-08-21T01:47:51;96547.59;;;19.32
60949;BMP280;46729;43.010;24.320;2022-08-21T01:50:19;96546.81;;;19.36
60949;BMP280;46729;43.010;24.320;2022-08-21T01:52:47;96543.63;;;19.34
60949;BMP280;46729;43.010;24.320;2022-08-21T01:55:15;96539.63;;;19.37
60949;BMP280;46729;43.010;24.320;2022-08-21T01:57:43;96548.16;;;19.39
60949;BMP280;46729;43.010;24.320;2022-08-21T02:00:15;96552.66;;;19.33
60949;BMP280;46729;43.010;24.320;2022-08-21T02:02:42;96551.50;;;19.15
60949;BMP280;46729;43.010;24.320;2022-08-21T02:05:11;96540.22;;;19.03
60949;BMP280;46729;43.010;24.320;2022-08-21T02:07:45;96540.66;;;19.26
60949;BMP280;46729;43.010;24.320;2022-08-21T02:10:16;96522.44;;;19.13
60949;BMP280;46729;43.010;24.320;2022-08-21T02:12:44;96523.66;;;18.96
60949;BMP280;46729;43.010;24.320;2022-08-21T02:15:11;96532.94;;;18.89
60949;BMP280;46729;43.010;24.320;2022-08-21T02:17:56;96527.63;;;18.89
60949;BMP280;46729;43.010;24.320;2022-08-21T02:20:31;96516.00;;;19.05
60949;BMP280;46729;43.010;24.320;2022-08-21T02:22:59;96515.38;;;18.93
60949;BMP280;46729;43.010;24.320;2022-08-21T02:25:27;96509.53;;;18.91
60949;BMP280;46729;43.010;24.320;2022-08-21T02:27:54;96504.22;;;18.91
60949;BMP280;46729;43.010;24.320;2022-08-21T02:30:26;96509.59;;;19.01
60949;BMP280;46729;43.010;24.320;2022-08-21T02:32:53;96502.44;;;19.06
60949;BMP280;46729;43.010;24.320;2022-08-21T02:35:21;96508.00;;;19.05
60949;BMP280;46729;43.010;24.320;2022-08-21T02:37:55;96506.72;;;19.12
60949;BMP280;46729;43.010;24.320;2022-08-21T02:40:23;96499.84;;;19.16
60949;BMP280;46729;43.010;24.320;2022-08-21T02:42:51;96501.81;;;18.94
60949;BMP280;46729;43.010;24.320;2022-08-21T02:45:18;96505.84;;;19.02
60949;BMP280;46729;43.010;24.320;2022-08-21T02:47:57;96516.56;;;19.07
60949;BMP280;46729;43.010;24.320;2022-08-21T02:50:28;96516.63;;;19.16
60949;BMP280;46729;43.010;24.320;2022-08-21T02:52:55;96522.50;;;19.18
60949;BMP280;46729;43.010;24.320;2022-08-21T02:55:24;96538.03;;;18.95
60949;BMP280;46729;43.010;24.320;2022-08-21T02:57:54;96548.28;;;18.77
60949;BMP280;46729;43.010;24.320;2022-08-21T03:00:24;96545.38;;;18.79
60949;BMP280;46729;43.010;24.320;2022-08-21T03:02:52;96555.03;;;18.89
60949;BMP280;46729;43.010;24.320;2022-08-21T03:05:19;96551.66;;;19.04
60949;BMP280;46729;43.010;24.320;2022-08-21T03:07:47;96552.47;;;19.04
60949;BMP280;46729;43.010;24.320;2022-08-21T03:10:15;96543.81;;;19.23
60949;BMP280;46729;43.010;24.320;2022-08-21T03:12:42;96550.19;;;19.22
60949;BMP280;46729;43.010;24.320;2022-08-21T03:15:12;96548.09;;;18.84
60949;BMP280;46729;43.010;24.320;2022-08-21T03:17:40;96553.59;;;18.72
60949;BMP280;46729;43.010;24.320;2022-08-21T03:20:08;96548.28;;;18.77
60949;BMP280;46729;43.010;24.320;2022-08-21T03:22:35;96544.09;;;18.86
60949;BMP280;46729;43.010;24.320;2022-08-21T03:25:03;96542.53;;;18.90
60949;BMP280;46729;43.010;24.320;2022-08-21T03:27:30;96538.91;;;19.06
60949;BMP280;46729;43.010;24.320;2022-08-21T03:29:57;96538.09;;;19.05
60949;BMP280;46729;43.010;24.320;2022-08-21T03:32:24;96534.69;;;19.14
60949;BMP280;46729;43.010;24.320;2022-08-21T03:34:50;96540.34;;;19.18
60949;BMP280;46729;43.010;24.320;2022-08-21T03:37:18;96543.63;;;19.39
60949;BMP280;46729;43.010;24.320;2022-08-21T03:39:45;96543.25;;;19.21
60949;BMP280;46729;43.010;24.320;2022-08-21T03:42:12;96551.66;;;18.99
60949;BMP280;46729;43.010;24.320;2022-08-21T03:44:39;96550.38;;;18.75
60949;BMP280;46729;43.010;24.320;2022-08-21T03:47:06;96552.97;;;18.66
60949;BMP280;46729;43.010;24.320;2022-08-21T03:49:33;96535.53;;;18.79
60949;BMP280;46729;43.010;24.320;2022-08-21T03:52:00;96530.38;;;19.04
60949;BMP280;46729;43.010;24.320;2022-08-21T03:54:27;96525.91;;;19.14
60949;BMP280;46729;43.010;24.320;2022-08-21T03:56:54;96527.63;;;19.34
60949;BMP280;46729;43.010;24.320;2022-08-21T03:59:22;96529.69;;;19.23
60949;BMP280;46729;43.010;24.320;2022-08-21T04:02:00;96532.53;;;19.11
60949;BMP280;46729;43.010;24.320;2022-08-21T04:04:28;96525.63;;;19.10
60949;BMP280;46729;43.010;24.320;2022-08-21T04:06:56;96533.50;;;18.91
60949;BMP280;46729;43.010;24.320;2022-08-21T04:09:23;96530.22;;;18.79
60949;BMP280;46729;43.010;24.320;2022-08-21T04:11:50;96524.06;;;18.74
60949;BMP280;46729;43.010;24.320;2022-08-21T04:14:17;96505.78;;;18.87
60949;BMP280;46729;43.010;24.320;2022-08-21T04:16:45;96523.91;;;18.90
60949;BMP280;46729;43.010;24.320;2022-08-21T04:19:12;96517.84;;;18.99
60949;BMP280;46729;43.010;24.320;2022-08-21T04:21:42;96512.66;;;19.24
60949;BMP280;46729;43.010;24.320;2022-08-21T04:24:10;96526.72;;;19.19
60949;BMP280;46729;43.010;24.320;2022-08-21T04:26:38;96529.13;;;19.21
60949;BMP280;46729;43.010;24.320;2022-08-21T04:29:05;96521.41;;;19.19
60949;BMP280;46729;43.010;24.320;2022-08-21T04:31:35;96528.81;;;19.08
60949;BMP280;46729;43.010;24.320;2022-08-21T04:34:07;96522.81;;;19.31
60949;BMP280;46729;43.010;24.320;2022-08-21T04:36:33;96514.06;;;19.41
60949;BMP280;46729;43.010;24.320;2022-08-21T04:39:00;96516.25;;;19.53
60949;BMP280;46729;43.010;24.320;2022-08-21T04:41:27;96510.44;;;19.56
60949;BMP280;46729;43.010;24.320;2022-08-21T04:43:55;96515.81;;;19.66
60949;BMP280;46729;43.010;24.320;2022-08-21T04:46:22;96507.25;;;19.64
60949;BMP280;46729;43.010;24.320;2022-08-21T04:48:49;96526.47;;;19.66
60949;BMP280;46729;43.010;24.320;2022-08-21T05:13:50;96507.91;;;20.05
60949;BMP280;46729;43.010;24.320;2022-08-21T05:16:16;96503.38;;;20.01
60949;BMP280;46729;43.010;24.320;2022-08-21T05:18:42;96507.38;;;19.98
60949;BMP280;46729;43.010;24.320;2022-08-21T05:21:08;96515.13;;;19.95
60949;BMP280;46729;43.010;24.320;2022-08-21T05:23:35;96511.13;;;20.02
60949;BMP280;46729;43.010;24.320;2022-08-21T05:26:00;96507.41;;;20.03
60949;BMP280;46729;43.010;24.320;2022-08-21T05:28:26;96506.34;;;20.09
60949;BMP280;46729;43.010;24.320;2022-08-21T05:30:52;96516.19;;;20.08
60949;BMP280;46729;43.010;24.320;2022-08-21T05:33:17;96515.41;;;20.03
60949;BMP280;46729;43.010;24.320;2022-08-21T05:35:43;96520.19;;;20.01
60949;BMP280;46729;43.010;24.320;2022-08-21T05:38:08;96523.91;;;19.95
60949;BMP280;46729;43.010;24.320;2022-08-21T05:40:34;96525.50;;;19.91
60949;BMP280;46729;43.010;24.320;2022-08-21T05:43:00;96524.72;;;19.96
60949;BMP280;46729;43.010;24.320;2022-08-21T05:45:30;96531.69;;;20.11
60949;BMP280;46729;43.010;24.320;2022-08-21T05:47:56;96533.03;;;20.19
60949;BMP280;46729;43.010;24.320;2022-08-21T05:50:22;96538.38;;;20.28
60949;BMP280;46729;43.010;24.320;2022-08-21T05:52:47;96544.25;;;20.25
60949;BMP280;46729;43.010;24.320;2022-08-21T05:55:13;96540.78;;;20.35
60949;BMP280;46729;43.010;24.320;2022-08-21T05:57:39;96540.28;;;20.42
60949;BMP280;46729;43.010;24.320;2022-08-21T06:00:08;96539.25;;;20.53
60949;BMP280;46729;43.010;24.320;2022-08-21T06:02:38;96549.09;;;20.58
60949;BMP280;46729;43.010;24.320;2022-08-21T06:05:04;96555.53;;;20.61
60949;BMP280;46729;43.010;24.320;2022-08-21T06:07:30;96545.38;;;20.68
60949;BMP280;46729;43.010;24.320;2022-08-21T06:09:55;96548.31;;;20.67
60949;BMP280;46729;43.010;24.320;2022-08-21T06:12:21;96563.53;;;20.47
60949;BMP280;46729;43.010;24.320;2022-08-21T06:14:47;96564.84;;;20.44
60949;BMP280;46729;43.010;24.320;2022-08-21T06:17:12;96562.94;;;20.35
60949;BMP280;46729;43.010;24.320;2022-08-21T06:19:40;96572.31;;;20.42
60949;BMP280;46729;43.010;24.320;2022-08-21T06:22:05;96572.59;;;20.36
60949;BMP280;46729;43.010;24.320;2022-08-21T06:24:32;96573.03;;;20.23
60949;BMP280;46729;43.010;24.320;2022-08-21T06:27:03;96573.00;;;20.14
60949;BMP280;46729;43.010;24.320;2022-08-21T06:29:28;96576.25;;;20.21
60949;BMP280;46729;43.010;24.320;2022-08-21T06:31:54;96578.47;;;20.38
60949;BMP280;46729;43.010;24.320;2022-08-21T06:34:19;96573.91;;;20.48
60949;BMP280;46729;43.010;24.320;2022-08-21T06:36:45;96574.19;;;20.57
60949;BMP280;46729;43.010;24.320;2022-08-21T06:39:11;96578.47;;;20.58
60949;BMP280;46729;43.010;24.320;2022-08-21T06:41:38;96581.13;;;20.58
60949;BMP280;46729;43.010;24.320;2022-08-21T06:44:04;96571.28;;;20.63
60949;BMP280;46729;43.010;24.320;2022-08-21T06:46:30;96572.59;;;20.75
60949;BMP280;46729;43.010;24.320;2022-08-21T06:48:57;96574.75;;;20.83
60949;BMP280;46729;43.010;24.320;2022-08-21T06:51:23;96569.13;;;21.04
60949;BMP280;46729;43.010;24.320;2022-08-21T06:53:48;96576.34;;;21.03
60949;BMP280;46729;43.010;24.320;2022-08-21T06:56:14;96573.13;;;21.01
60949;BMP280;46729;43.010;24.320;2022-08-21T06:58:40;96575.81;;;21.21
60949;BMP280;46729;43.010;24.320;2022-08-21T07:01:06;96569.09;;;21.43
60949;BMP280;46729;43.010;24.320;2022-08-21T07:03:37;96563.97;;;21.61
60949;BMP280;46729;43.010;24.320;2022-08-21T07:06:05;96559.91;;;21.73
60949;BMP280;46729;43.010;24.320;2022-08-21T07:08:31;96558.53;;;21.90
60949;BMP280;46729;43.010;24.320;2022-08-21T07:10:58;96560.88;;;22.06
60949;BMP280;46729;43.010;24.320;2022-08-21T07:13:25;96567.00;;;22.12
60949;BMP280;46729;43.010;24.320;2022-08-21T07:15:51;96560.03;;;22.15
60949;BMP280;46729;43.010;24.320;2022-08-21T07:18:17;96564.25;;;22.21
60949;BMP280;46729;43.010;24.320;2022-08-21T07:20:43;96557.03;;;22.22
60949;BMP280;46729;43.010;24.320;2022-08-21T07:23:14;96551.38;;;22.28
60949;BMP280;46729;43.010;24.320;2022-08-21T07:25:43;96551.31;;;22.38
60949;BMP280;46729;43.010;24.320;2022-08-21T07:28:09;96548.63;;;22.38
60949;BMP280;46729;43.010;24.320;2022-08-21T07:30:35;96537.28;;;22.55
60949;BMP280;46729;43.010;24.320;2022-08-21T07:33:00;96550.47;;;22.85
60949;BMP280;46729;43.010;24.320;2022-08-21T07:35:26;96550.41;;;22.90
60949;BMP280;46729;43.010;24.320;2022-08-21T07:37:53;96538.00;;;23.03
60949;BMP280;46729;43.010;24.320;2022-08-21T07:40:19;96526.31;;;23.17
60949;BMP280;46729;43.010;24.320;2022-08-21T07:42:47;96528.94;;;23.50
60949;BMP280;46729;43.010;24.320;2022-08-21T07:45:15;96530.38;;;23.43
60949;BMP280;46729;43.010;24.320;2022-08-21T07:47:41;96532.44;;;23.50
60949;BMP280;46729;43.010;24.320;2022-08-21T07:50:07;96541.00;;;23.52
60949;BMP280;46729;43.010;24.320;2022-08-21T07:52:33;96531.41;;;23.47
60949;BMP280;46729;43.010;24.320;2022-08-21T07:54:59;96533.41;;;23.36
60949;BMP280;46729;43.010;24.320;2022-08-21T07:57:25;96524.88;;;23.75
60949;BMP280;46729;43.010;24.320;2022-08-21T07:59:50;96522.66;;;24.05
60949;BMP280;46729;43.010;24.320;2022-08-21T08:02:24;96524.56;;;24.23
60949;BMP280;46729;43.010;24.320;2022-08-21T08:04:50;96530.50;;;24.20
60949;BMP280;46729;43.010;24.320;2022-08-21T08:07:16;96527.66;;;24.11
60949;BMP280;46729;43.010;24.320;2022-08-21T08:09:42;96531.88;;;23.99
60949;BMP280;46729;43.010;24.320;2022-08-21T08:12:08;96530.06;;;24.13
60949;BMP280;46729;43.010;24.320;2022-08-21T08:14:34;96520.28;;;24.40
60949;BMP280;46729;43.010;24.320;2022-08-21T08:17:00;96518.69;;;24.57
60949;BMP280;46729;43.010;24.320;2022-08-21T08:19:28;96513.59;;;24.55
60949;BMP280;46729;43.010;24.320;2022-08-21T08:21:53;96522.19;;;24.75
60949;BMP280;46729;43.010;24.320;2022-08-21T08:24:19;96515.94;;;24.62
60949;BMP280;46729;43.010;24.320;2022-08-21T08:26:45;96518.84;;;24.83
60949;BMP280;46729;43.010;24.320;2022-08-21T08:29:10;96515.50;;;25.04
60949;BMP280;46729;43.010;24.320;2022-08-21T08:31:36;96516.00;;;24.75
60949;BMP280;46729;43.010;24.320;2022-08-21T08:34:01;96511.41;;;24.93
60949;BMP280;46729;43.010;24.320;2022-08-21T08:36:36;96517.09;;;25.05
60949;BMP280;46729;43.010;24.320;2022-08-21T08:39:05;96506.44;;;25.00
60949;BMP280;46729;43.010;24.320;2022-08-21T08:41:32;96511.41;;;24.93
60949;BMP280;46729;43.010;24.320;2022-08-21T08:44:02;96506.38;;;24.87
60949;BMP280;46729;43.010;24.320;2022-08-21T08:46:41;96505.09;;;24.84
60949;BMP280;46729;43.010;24.320;2022-08-21T08:52:00;96500.41;;;24.77
60949;BMP280;46729;43.010;24.320;2022-08-21T08:54:35;96506.63;;;24.72
60949;BMP280;46729;43.010;24.320;2022-08-21T08:57:09;96503.59;;;25.10
60949;BMP280;46729;43.010;24.320;2022-08-21T08:59:41;96495.94;;;25.17
60949;BMP280;46729;43.010;24.320;2022-08-21T09:02:11;96509.59;;;24.89
60949;BMP280;46729;43.010;24.320;2022-08-21T09:04:36;96494.78;;;25.04
60949;BMP280;46729;43.010;24.320;2022-08-21T09:09:37;96483.16;;;25.79
60949;BMP280;46729;43.010;24.320;2022-08-21T09:12:14;96486.13;;;25.91
60949;BMP280;46729;43.010;24.320;2022-08-21T09:20:19;96483.44;;;26.04
60949;BMP280;46729;43.010;24.320;2022-08-21T09:25:25;96486.00;;;26.09
60949;BMP280;46729;43.010;24.320;2022-08-21T09:27:52;96470.59;;;26.36
60949;BMP280;46729;43.010;24.320;2022-08-21T09:30:24;96465.56;;;26.43
60949;BMP280;46729;43.010;24.320;2022-08-21T09:32:51;96462.63;;;26.66
60949;BMP280;46729;43.010;24.320;2022-08-21T09:35:19;96464.84;;;26.64
60949;BMP280;46729;43.010;24.320;2022-08-21T09:37:50;96459.47;;;26.51
60949;BMP280;46729;43.010;24.320;2022-08-21T09:43:19;96453.09;;;27.11
60949;BMP280;46729;43.010;24.320;2022-08-21T09:45:47;96448.63;;;27.07
60949;BMP280;46729;43.010;24.320;2022-08-21T09:50:46;96451.56;;;27.56
60949;BMP280;46729;43.010;24.320;2022-08-21T09:53:29;96444.63;;;27.64
60949;BMP280;46729;43.010;24.320;2022-08-21T09:56:04;96439.00;;;27.90
60949;BMP280;46729;43.010;24.320;2022-08-21T09:58:50;96444.41;;;27.98
60949;BMP280;46729;43.010;24.320;2022-08-21T10:01:25;96437.00;;;28.12
60949;BMP280;46729;43.010;24.320;2022-08-21T10:04:09;96435.66;;;27.85
60949;BMP280;46729;43.010;24.320;2022-08-21T10:06:36;96427.97;;;28.41
60949;BMP280;46729;43.010;24.320;2022-08-21T10:09:10;96428.91;;;28.62
60949;BMP280;46729;43.010;24.320;2022-08-21T10:11:36;96423.63;;;28.73
60949;BMP280;46729;43.010;24.320;2022-08-21T10:17:04;96417.31;;;28.86
60949;BMP280;46729;43.010;24.320;2022-08-21T10:19:43;96415.56;;;28.57
60949;BMP280;46729;43.010;24.320;2022-08-21T10:25:17;96416.50;;;28.61
60949;BMP280;46729;43.010;24.320;2022-08-21T10:30:42;96399.13;;;28.95
60949;BMP280;46729;43.010;24.320;2022-08-21T10:36:02;96400.13;;;28.82
60949;BMP280;46729;43.010;24.320;2022-08-21T10:41:21;96397.56;;;28.77
60949;BMP280;46729;43.010;24.320;2022-08-21T10:44:30;96397.44;;;28.57
60949;BMP280;46729;43.010;24.320;2022-08-21T10:47:10;96402.66;;;28.04
60949;BMP280;46729;43.010;24.320;2022-08-21T10:52:49;96402.50;;;28.17
60949;BMP280;46729;43.010;24.320;2022-08-21T10:55:30;96399.28;;;27.91
60949;BMP280;46729;43.010;24.320;2022-08-21T10:58:28;96389.47;;;28.11
60949;BMP280;46729;43.010;24.320;2022-08-21T11:01:23;96389.78;;;28.10
60949;BMP280;46729;43.010;24.320;2022-08-21T11:04:20;96375.00;;;27.91
60949;BMP280;46729;43.010;24.320;2022-08-21T11:06:53;96385.94;;;27.77
60949;BMP280;46729;43.010;24.320;2022-08-21T11:09:24;96389.28;;;27.83
60949;BMP280;46729;43.010;24.320;2022-08-21T11:12:05;96381.66;;;27.85
60949;BMP280;46729;43.010;24.320;2022-08-21T11:14:51;96381.34;;;27.78
60949;BMP280;46729;43.010;24.320;2022-08-21T11:17:28;96384.97;;;27.73
60949;BMP280;46729;43.010;24.320;2022-08-21T11:20:03;96378.16;;;27.76
60949;BMP280;46729;43.010;24.320;2022-08-21T11:22:38;96380.28;;;27.49
60949;BMP280;46729;43.010;24.320;2022-08-21T11:25:20;96373.50;;;27.60
60949;BMP280;46729;43.010;24.320;2022-08-21T11:27:54;96362.75;;;27.68
60949;BMP280;46729;43.010;24.320;2022-08-21T11:30:24;96362.88;;;27.72
60949;BMP280;46729;43.010;24.320;2022-08-21T11:38:26;96352.75;;;27.77
60949;BMP280;46729;43.010;24.320;2022-08-21T11:41:05;96363.28;;;27.49
60949;BMP280;46729;43.010;24.320;2022-08-21T11:43:35;96356.00;;;27.57
60949;BMP280;46729;43.010;24.320;2022-08-21T11:51:46;96345.44;;;27.23
60949;BMP280;46729;43.010;24.320;2022-08-21T11:54:33;96351.38;;;26.74
60949;BMP280;46729;43.010;24.320;2022-08-21T11:57:21;96334.03;;;27.26
60949;BMP280;46729;43.010;24.320;2022-08-21T12:00:28;96335.47;;;28.03
60949;BMP280;46729;43.010;24.320;2022-08-21T12:02:58;96337.69;;;28.01
60949;BMP280;46729;43.010;24.320;2022-08-21T12:05:36;96327.06;;;28.29
60949;BMP280;46729;43.010;24.320;2022-08-21T12:08:10;96329.88;;;28.08
60949;BMP280;46729;43.010;24.320;2022-08-21T12:10:42;96322.75;;;28.36
60949;BMP280;46729;43.010;24.320;2022-08-21T12:13:24;96317.00;;;29.07
60949;BMP280;46729;43.010;24.320;2022-08-21T12:15:49;96310.00;;;29.07
60949;BMP280;46729;43.010;24.320;2022-08-21T12:18:28;96308.03;;;28.79
60949;BMP280;46729;43.010;24.320;2022-08-21T12:23:34;96293.22;;;28.76
60949;BMP280;46729;43.010;24.320;2022-08-21T12:31:54;96291.94;;;28.82
60949;BMP280;46729;43.010;24.320;2022-08-21T12:34:22;96284.44;;;28.96
60949;BMP280;46729;43.010;24.320;2022-08-21T12:36:54;96288.81;;;28.72
60949;BMP280;46729;43.010;24.320;2022-08-21T12:39:25;96290.03;;;28.74
60949;BMP280;46729;43.010;24.320;2022-08-21T12:42:10;96287.88;;;28.60
60949;BMP280;46729;43.010;24.320;2022-08-21T12:44:46;96280.88;;;28.59
60949;BMP280;46729;43.010;24.320;2022-08-21T12:49:59;96277.19;;;28.71
60949;BMP280;46729;43.010;24.320;2022-08-21T12:52:34;96274.69;;;28.50
60949;BMP280;46729;43.010;24.320;2022-08-21T12:55:01;96287.44;;;28.41
60949;BMP280;46729;43.010;24.320;2022-08-21T12:57:29;96283.66;;;28.26
60949;BMP280;46729;43.010;24.320;2022-08-21T13:00:00;96287.31;;;28.30
60949;BMP280;46729;43.010;24.320;2022-08-21T13:02:31;96290.66;;;28.27
60949;BMP280;46729;43.010;24.320;2022-08-21T13:04:58;96289.81;;;28.43
60949;BMP280;46729;43.010;24.320;2022-08-21T13:07:29;96285.69;;;28.45
60949;BMP280;46729;43.010;24.320;2022-08-21T13:10:06;96287.13;;;28.43
60949;BMP280;46729;43.010;24.320;2022-08-21T13:12:33;96297.63;;;28.44
60949;BMP280;46729;43.010;24.320;2022-08-21T13:15:04;96290.00;;;28.46
60949;BMP280;46729;43.010;24.320;2022-08-21T13:17:34;96288.22;;;28.50
60949;BMP280;46729;43.010;24.320;2022-08-21T13:20:09;96286.84;;;28.89
60949;BMP280;46729;43.010;24.320;2022-08-21T13:22:43;96281.84;;;29.07
60949;BMP280;46729;43.010;24.320;2022-08-21T13:25:20;96280.66;;;28.88
60949;BMP280;46729;43.010;24.320;2022-08-21T13:28:04;96286.69;;;28.86
60949;BMP280;46729;43.010;24.320;2022-08-21T13:30:29;96285.09;;;28.85
60949;BMP280;46729;43.010;24.320;2022-08-21T13:32:58;96281.97;;;28.58
60949;BMP280;46729;43.010;24.320;2022-08-21T13:35:31;96278.84;;;28.39
60949;BMP280;46729;43.010;24.320;2022-08-21T13:38:00;96279.03;;;28.34
60949;BMP280;46729;43.010;24.320;2022-08-21T13:43:33;96268.22;;;28.18
60949;BMP280;46729;43.010;24.320;2022-08-21T13:46:00;96271.09;;;27.88
60949;BMP280;46729;43.010;24.320;2022-08-21T13:48:30;96279.22;;;27.80
60949;BMP280;46729;43.010;24.320;2022-08-21T13:50:58;96266.06;;;27.87
60949;BMP280;46729;43.010;24.320;2022-08-21T13:53:29;96273.00;;;27.71
60949;BMP280;46729;43.010;24.320;2022-08-21T13:55:55;96272.56;;;27.77
60949;BMP280;46729;43.010;24.320;2022-08-21T13:58:44;96265.56;;;27.68
60949;BMP280;46729;43.010;24.320;2022-08-21T14:01:48;96263.47;;;27.65
60949;BMP280;46729;43.010;24.320;2022-08-21T14:04:19;96259.97;;;27.65
60949;BMP280;46729;43.010;24.320;2022-08-21T14:06:45;96268.88;;;27.65
60949;BMP280;46729;43.010;24.320;2022-08-21T14:11:49;96254.88;;;27.63
60949;BMP280;46729;43.010;24.320;2022-08-21T14:14:31;96264.75;;;27.59
60949;BMP280;46729;43.010;24.320;2022-08-21T14:17:02;96262.03;;;27.59
60949;BMP280;46729;43.010;24.320;2022-08-21T14:19:41;96264.44;;;27.61
60949;BMP280;46729;43.010;24.320;2022-08-21T14:25:43;96259.03;;;27.61
60949;BMP280;46729;43.010;24.320;2022-08-21T14:27:50;96255.19;;;27.53
60949;BMP280;46729;43.010;24.320;2022-08-21T14:30:19;96256.78;;;27.46
60949;BMP280;46729;43.010;24.320;2022-08-21T14:32:46;96262.81;;;27.43
60949;BMP280;46729;43.010;24.320;2022-08-21T14:35:13;96255.34;;;27.32
60949;BMP280;46729;43.010;24.320;2022-08-21T14:37:43;96258.84;;;27.33
60949;BMP280;46729;43.010;24.320;2022-08-21T14:40:09;96255.34;;;27.32
60949;BMP280;46729;43.010;24.320;2022-08-21T14:42:36;96251.66;;;27.28
60949;BMP280;46729;43.010;24.320;2022-08-21T14:45:10;96260.72;;;27.32
60949;BMP280;46729;43.010;24.320;2022-08-21T14:47:38;96258.22;;;27.35
60949;BMP280;46729;43.010;24.320;2022-08-21T14:50:04;96255.66;;;27.31
60949;BMP280;46729;43.010;24.320;2022-08-21T14:52:30;96247.72;;;27.34
60949;BMP280;46729;43.010;24.320;2022-08-21T14:54:56;96253.13;;;27.26
60949;BMP280;46729;43.010;24.320;2022-08-21T14:57:22;96251.66;;;27.28
60949;BMP280;46729;43.010;24.320;2022-08-21T14:59:48;96248.97;;;27.28
60949;BMP280;46729;43.010;24.320;2022-08-21T15:02:14;96252.94;;;27.22
60949;BMP280;46729;43.010;24.320;2022-08-21T15:04:40;96250.09;;;27.27
60949;BMP280;46729;43.010;24.320;2022-08-21T15:07:07;96248.97;;;27.28
60949;BMP280;46729;43.010;24.320;2022-08-21T15:09:32;96243.56;;;27.28
60949;BMP280;46729;43.010;24.320;2022-08-21T15:12:00;96237.41;;;27.36
60949;BMP280;46729;43.010;24.320;2022-08-21T15:14:28;96248.03;;;27.33
60949;BMP280;46729;43.010;24.320;2022-08-21T15:16:55;96240.44;;;27.34
60949;BMP280;46729;43.010;24.320;2022-08-21T15:19:21;96234.88;;;27.31
60949;BMP280;46729;43.010;24.320;2022-08-21T15:21:47;96235.16;;;27.21
60949;BMP280;46729;43.010;24.320;2022-08-21T15:24:12;96232.31;;;27.18
60949;BMP280;46729;43.010;24.320;2022-08-21T15:26:38;96239.63;;;27.17
60949;BMP280;46729;43.010;24.320;2022-08-21T15:29:06;96239.59;;;27.09
60949;BMP280;46729;43.010;24.320;2022-08-21T15:31:32;96238.16;;;27.12
60949;BMP280;46729;43.010;24.320;2022-08-21T15:33:58;96240.28;;;26.85
60949;BMP280;46729;43.010;24.320;2022-08-21T15:36:23;96249.41;;;26.67
60949;BMP280;46729;43.010;24.320;2022-08-21T15:38:49;96242.34;;;26.50
60949;BMP280;46729;43.010;24.320;2022-08-21T15:41:15;96235.31;;;26.70